Jump to content


SKYWEST AIRLINES FLIGHT OO5675 FLOWN ON 08-31-2017 BY CAPTAIN JIM BOERMAN

Pilot StatsCaptain Jim Boerman (LDP136) • 4,648.3 total hours • 1,417 total flights [View Logbook]
FLIGHT DETAILS
StatusReceived and approved on 2017-08-31 at 14:08:47
Origin AirportLos Angeles Intl (KLAX) • Los Angeles, California, United States (126 feet MSL)
Filed Flight PlanKLAX PACIF KSAN
Destination AirportSan Diego Intl (KSAN) • San Diego, California, United States (15 feet MSL)
Alternate AirportLos Angeles Intl (KLAX) • Los Angeles, California, United States (126 feet MSL)
AirlineSkywest Airlines
AircraftEmbraer ERJ-145 (ER4 / ERJ-145)
FS Aircraft UsedPIC ERJ145LR - United Express
Cruising AltitudeFL330
Distance Flown95 nautical miles
Passengers Onboard25 passengers (50.00% full)
DEPARTURE DETAILS
Time Out10:50:20
Taxi Data41,093 lbs total with 5,453 lbs of fuel onboard
Takeoff Data11:02:49 (12 minutes after leaving gate/ramp) • 40,807 lbs total • 8° pitch at 145 knots
Departure METARKLAX 311653Z 26008KT 10SM SCT070 27/20 A2975 RMK AO2 SLP074 ACC OHD T02720200
ARRIVAL DETAILS
Landing Data11:29:04 • 39,674 lbs total • 3° pitch doing 121 knots at a rate of -154.56 feet/minute with 3,881 lbs of fuel onboard
Time In11:36:30 (7 minutes after landing)
Ramp Weight39,520 lbs total
Total Fuel Used1,572 lbs
Total Block Time00:44:21 (0.7 hours) while 20 minutes were spent on the ground
Arrival METARKSAN 311751Z 18007KT 10SM FEW002 FEW060 SCT080 SCT140 23/20 A2977 RMK AO2 SLP081 VIS SE-S-SW 3 T02330200 10233 20206 50000 $
MISCELLANEOUS DETAILS
LiveDISPATCH Version4.8.3.1
FS Version
FSUIPC Version4.93
OS VersionWindows 7 32-bit
Screen Resolution1920 x 1080
Pilot's CommentsNo Comments Reported
FLIGHT MAP